createdAt,value
2018-10-05T00:00:17.901Z,99761.54
2018-10-05T00:02:52.803Z,99756.92
2018-10-05T00:05:41.612Z,99761.77
2018-10-05T00:08:16.200Z,99760.41
2018-10-05T00:10:50.673Z,99754.44
2018-10-05T00:13:25.105Z,99754.09
2018-10-05T00:16:07.065Z,99756.87
2018-10-05T00:18:41.676Z,99761.16
2018-10-05T00:21:16.229Z,99755.09
2018-10-05T00:23:50.908Z,99747.30
2018-10-05T00:26:25.383Z,99746.18
2018-10-05T00:28:59.816Z,99742.89
2018-10-05T00:31:34.277Z,99745.41
2018-10-05T00:34:09.005Z,99741.05
2018-10-05T00:36:43.689Z,99736.21
2018-10-05T00:39:18.200Z,99737.74
2018-10-05T00:41:52.750Z,99736.55
2018-10-05T00:44:27.530Z,99723.78
2018-10-05T00:47:02.045Z,99728.92
2018-10-05T00:49:36.681Z,99730.26
2018-10-05T00:52:11.640Z,99734.70
2018-10-05T00:57:45.243Z,99716.21
2018-10-05T01:00:20.896Z,99720.47
2018-10-05T01:02:55.568Z,99717.07
2018-10-05T01:05:30.083Z,99714.70
2018-10-05T01:08:04.475Z,99704.86
2018-10-05T01:10:51.128Z,99709.36
2018-10-05T01:16:30.742Z,99706.10
2018-10-05T01:19:28.161Z,99701.81
2018-10-05T01:22:03.561Z,99702.20
2018-10-05T01:24:38.383Z,99705.30
2018-10-05T01:27:13.045Z,99697.61
2018-10-05T01:29:47.759Z,99689.37
2018-10-05T01:32:22.644Z,99687.43
2018-10-05T01:34:57.576Z,99692.96
2018-10-05T01:37:32.099Z,99684.09
2018-10-05T01:40:06.556Z,99677.42
2018-10-05T01:42:40.895Z,99678.70
2018-10-05T01:45:15.891Z,99670.05
2018-10-05T01:47:51.872Z,99672.77
2018-10-05T01:50:26.489Z,99665.52
2018-10-05T01:53:15.733Z,99671.46
2018-10-05T01:55:50.412Z,99662.38
2018-10-05T01:58:38.389Z,99656.52
2018-10-05T02:01:12.772Z,99652.00
2018-10-05T02:03:47.768Z,99650.52
2018-10-05T02:06:22.424Z,99650.16
2018-10-05T02:08:57.180Z,99647.30
2018-10-05T02:11:32.233Z,99647.32
2018-10-05T02:14:06.692Z,99647.74
2018-10-05T02:16:41.410Z,99644.70
2018-10-05T02:19:15.946Z,99641.09
2018-10-05T02:21:51.166Z,99645.94
2018-10-05T02:24:25.867Z,99640.23
2018-10-05T02:27:01.989Z,99639.06
2018-10-05T02:29:36.512Z,99645.16
2018-10-05T02:32:11.319Z,99637.45
2018-10-05T02:34:46.313Z,99641.13
2018-10-05T02:37:20.780Z,99633.44
2018-10-05T02:39:55.232Z,99635.03
2018-10-05T02:42:30.328Z,99630.08
2018-10-05T02:45:04.908Z,99626.94
2018-10-05T02:48:02.283Z,99621.16
2018-10-05T02:50:37.393Z,99619.87
2018-10-05T02:53:12.023Z,99617.39
2018-10-05T02:55:46.520Z,99617.56
2018-10-05T02:58:21.046Z,99613.05
2018-10-05T03:01:07.012Z,99613.11
2018-10-05T03:03:41.476Z,99609.64
2018-10-05T03:06:15.946Z,99601.34
2018-10-05T03:08:50.319Z,99605.68
2018-10-05T03:11:25.264Z,99603.81
2018-10-05T03:13:59.880Z,99600.84
2018-10-05T03:16:34.576Z,99596.88
2018-10-05T03:19:09.088Z,99592.61
2018-10-05T03:21:43.885Z,99593.16
2018-10-05T03:24:18.474Z,99587.47
2018-10-05T03:26:53.152Z,99591.81
2018-10-05T03:29:27.897Z,99591.31
2018-10-05T03:32:02.467Z,99584.73
2018-10-05T03:34:37.287Z,99586.84
2018-10-05T03:37:11.948Z,99580.41
2018-10-05T03:39:46.870Z,99582.87
2018-10-05T03:42:21.453Z,99580.77
2018-10-05T03:44:55.965Z,99572.28
2018-10-05T03:47:30.861Z,99572.84
2018-10-05T03:50:05.483Z,99574.95
2018-10-05T03:52:40.147Z,99579.48
2018-10-05T03:55:15.003Z,99574.33
2018-10-05T03:57:49.509Z,99576.69
2018-10-05T04:00:24.181Z,99573.70
2018-10-05T04:03:14.956Z,99575.20
2018-10-05T04:05:49.745Z,99565.09
2018-10-05T04:08:24.297Z,99569.38
2018-10-05T04:10:58.931Z,99562.12
2018-10-05T04:13:33.596Z,99566.70
2018-10-05T04:16:08.722Z,99561.25
2018-10-05T04:21:40.032Z,99555.12
2018-10-05T04:24:14.783Z,99551.95
2018-10-05T04:26:49.301Z,99543.48
2018-10-05T04:29:23.916Z,99533.93
2018-10-05T04:31:58.497Z,99524.64
2018-10-05T04:34:33.344Z,99526.31
2018-10-05T04:37:08.287Z,99535.05
2018-10-05T04:39:42.837Z,99526.09
2018-10-05T04:42:17.467Z,99529.09
2018-10-05T04:44:51.894Z,99527.61
2018-10-05T04:47:26.403Z,99530.61
2018-10-05T04:50:01.044Z,99535.75
2018-10-05T04:52:35.463Z,99527.70
2018-10-05T04:55:09.948Z,99527.20
2018-10-05T04:57:44.357Z,99518.44
2018-10-05T05:00:19.409Z,99528.44
2018-10-05T05:02:54.073Z,99522.78
2018-10-05T05:05:28.868Z,99523.98
2018-10-05T05:08:03.376Z,99517.98
2018-10-05T05:10:38.050Z,99513.45
2018-10-05T05:13:26.537Z,99510.61
2018-10-05T05:16:01.386Z,99515.03
2018-10-05T05:18:55.180Z,99514.17
2018-10-05T05:21:29.679Z,99510.83
2018-10-05T05:24:04.737Z,99511.25
2018-10-05T05:26:39.070Z,99509.57
2018-10-05T05:29:13.665Z,99509.27
2018-10-05T05:31:48.385Z,99513.80
2018-10-05T05:34:22.837Z,99510.39
2018-10-05T05:36:57.432Z,99505.67
2018-10-05T05:39:31.904Z,99506.66
2018-10-05T05:42:07.521Z,99506.61
2018-10-05T05:44:48.956Z,99498.00
2018-10-05T05:47:33.561Z,99504.44
2018-10-05T05:50:08.056Z,99490.01
2018-10-05T05:52:42.673Z,99503.52
2018-10-05T05:55:17.173Z,99494.47
2018-10-05T05:57:51.692Z,99491.06
2018-10-05T06:00:26.325Z,99491.73
2018-10-05T06:06:00.627Z,99496.13
2018-10-05T06:08:35.289Z,99500.23
2018-10-05T06:11:09.972Z,99497.62
2018-10-05T06:16:41.539Z,99502.76
2018-10-05T06:19:16.076Z,99500.14
2018-10-05T06:21:51.141Z,99494.91
2018-10-05T06:24:36.748Z,99494.98
2018-10-05T06:27:11.181Z,99504.64
2018-10-05T06:29:45.554Z,99492.34
2018-10-05T06:32:19.975Z,99495.88
2018-10-05T06:34:54.409Z,99502.59
2018-10-05T06:37:30.072Z,99496.72
2018-10-05T06:40:04.463Z,99493.91
2018-10-05T06:42:38.738Z,99485.05
2018-10-05T06:45:13.662Z,99491.73
2018-10-05T06:47:47.999Z,99482.27
2018-10-05T06:50:22.432Z,99489.44
2018-10-05T06:52:56.940Z,99489.09
2018-10-05T06:55:31.427Z,99496.52
2018-10-05T06:58:05.947Z,99502.71
2018-10-05T07:00:40.633Z,99501.67
2018-10-05T07:03:15.039Z,99499.78
2018-10-05T07:05:49.553Z,99493.16
2018-10-05T07:08:26.040Z,99493.82
2018-10-05T07:11:00.744Z,99487.24
2018-10-05T07:13:35.797Z,99483.22
2018-10-05T07:16:10.388Z,99484.97
2018-10-05T07:18:46.106Z,99494.71
2018-10-05T07:21:21.106Z,99486.78
2018-10-05T07:23:56.075Z,99494.75
2018-10-05T07:26:30.488Z,99499.88
2018-10-05T07:29:05.049Z,99494.72
2018-10-05T07:31:39.654Z,99503.33
2018-10-05T07:34:14.457Z,99504.33
2018-10-05T07:36:49.150Z,99492.43
2018-10-05T07:39:25.408Z,99491.73
2018-10-05T07:42:00.037Z,99496.52
2018-10-05T07:44:34.810Z,99491.48
2018-10-05T07:47:09.580Z,99489.41
2018-10-05T07:49:43.976Z,99496.84
2018-10-05T07:52:26.389Z,99494.83
2018-10-05T07:55:01.030Z,99500.25
2018-10-05T07:57:35.669Z,99488.91
2018-10-05T08:00:10.450Z,99498.30
2018-10-05T08:02:45.013Z,99494.98
2018-10-05T08:05:20.776Z,99497.94
2018-10-05T08:07:55.228Z,99499.77
2018-10-05T08:10:29.817Z,99487.45
2018-10-05T08:13:04.530Z,99485.97
2018-10-05T08:15:39.516Z,99488.28
2018-10-05T08:18:14.256Z,99489.17
2018-10-05T08:20:48.800Z,99499.63
2018-10-05T08:23:23.441Z,99501.54
2018-10-05T08:25:58.059Z,99501.45
2018-10-05T08:28:32.582Z,99494.44
2018-10-05T08:31:08.766Z,99492.27
2018-10-05T08:33:45.572Z,99487.69
2018-10-05T08:36:20.189Z,99486.56
2018-10-05T08:38:55.049Z,99484.95
2018-10-05T08:41:29.676Z,99482.78
2018-10-05T08:44:04.467Z,99485.05
2018-10-05T08:46:39.152Z,99478.06
2018-10-05T08:49:13.809Z,99481.84
2018-10-05T08:51:48.479Z,99481.47
2018-10-05T08:54:23.398Z,99468.88
2018-10-05T08:56:58.045Z,99473.69
2018-10-05T08:59:32.492Z,99469.69
2018-10-05T09:02:07.016Z,99474.54
2018-10-05T09:04:41.592Z,99466.33
2018-10-05T09:07:16.057Z,99463.95
2018-10-05T09:09:50.969Z,99459.49
2018-10-05T09:12:25.866Z,99453.97
2018-10-05T09:15:00.532Z,99459.45
2018-10-05T09:17:35.287Z,99448.19
2018-10-05T09:20:09.876Z,99441.17
2018-10-05T09:22:44.873Z,99442.03
2018-10-05T09:25:19.553Z,99433.84
2018-10-05T09:27:54.165Z,99428.17
2018-10-05T09:30:29.071Z,99435.52
2018-10-05T09:33:03.959Z,99434.95
2018-10-05T09:35:38.648Z,99424.89
2018-10-05T09:38:13.092Z,99423.24
2018-10-05T09:40:47.666Z,99417.55
2018-10-05T09:43:22.283Z,99402.16
2018-10-05T09:45:56.794Z,99403.08
2018-10-05T09:48:31.821Z,99400.19
2018-10-05T09:51:06.537Z,99396.41
2018-10-05T09:53:41.105Z,99393.38
2018-10-05T09:56:17.359Z,99393.25
2018-10-05T09:58:52.256Z,99383.07
2018-10-05T10:01:32.387Z,99382.35
2018-10-05T10:04:07.440Z,99380.20
2018-10-05T10:06:43.002Z,99377.80
2018-10-05T10:09:18.448Z,99380.42
2018-10-05T10:11:53.466Z,99376.44
2018-10-05T10:14:28.268Z,99373.93
2018-10-05T10:17:03.095Z,99374.95
2018-10-05T10:19:37.708Z,99371.78
2018-10-05T10:22:12.233Z,99375.36
2018-10-05T10:24:46.692Z,99366.64
2018-10-05T10:27:21.285Z,99367.22
2018-10-05T10:29:56.347Z,99361.66
2018-10-05T10:32:49.476Z,99362.21
2018-10-05T10:35:24.600Z,99355.01
2018-10-05T10:38:06.836Z,99348.39
2018-10-05T10:40:41.291Z,99351.97
2018-10-05T10:43:15.697Z,99343.78
2018-10-05T10:45:50.353Z,99342.16
2018-10-05T10:48:24.893Z,99332.22
2018-10-05T10:50:59.348Z,99335.41
2018-10-05T10:53:33.825Z,99320.86
2018-10-05T10:56:08.465Z,99320.47
2018-10-05T10:58:43.177Z,99315.00
2018-10-05T11:01:17.901Z,99310.64
2018-10-05T11:03:52.983Z,99305.88
2018-10-05T11:06:32.674Z,99304.80
2018-10-05T11:09:07.776Z,99296.15
2018-10-05T11:11:42.220Z,99294.04
2018-10-05T11:14:16.760Z,99288.50
2018-10-05T11:16:51.297Z,99280.95
2018-10-05T11:19:26.180Z,99282.86
2018-10-05T11:25:00.833Z,99269.65
2018-10-05T11:27:35.451Z,99265.29
2018-10-05T11:30:10.457Z,99257.30
2018-10-05T11:32:45.335Z,99254.00
2018-10-05T11:35:19.960Z,99253.61
2018-10-05T11:37:54.904Z,99246.05
2018-10-05T11:40:29.513Z,99241.92
2018-10-05T11:43:04.104Z,99242.20
2018-10-05T11:45:38.788Z,99242.47
2018-10-05T11:48:13.305Z,99238.66
2018-10-05T11:50:47.841Z,99240.28
2018-10-05T11:53:22.472Z,99235.25
2018-10-05T11:55:57.064Z,99227.88
2018-10-05T11:58:31.648Z,99233.88
2018-10-05T12:01:06.389Z,99218.50
2018-10-05T12:03:40.905Z,99222.86
2018-10-05T12:06:15.520Z,99211.13
2018-10-05T12:08:54.069Z,99211.46
2018-10-05T12:11:28.680Z,99215.03
2018-10-05T12:14:03.693Z,99207.95
2018-10-05T12:16:38.327Z,99198.60
2018-10-05T12:19:12.865Z,99201.07
2018-10-05T12:21:47.588Z,99196.09
2018-10-05T12:24:22.354Z,99193.77
2018-10-05T12:26:57.068Z,99191.91
2018-10-05T12:29:31.737Z,99191.55
2018-10-05T12:32:06.420Z,99183.84
2018-10-05T12:34:41.184Z,99181.16
2018-10-05T12:37:15.913Z,99182.29
2018-10-05T12:39:50.617Z,99182.84
2018-10-05T12:42:25.303Z,99177.86
2018-10-05T12:44:59.822Z,99173.67
2018-10-05T12:47:34.514Z,99178.38
2018-10-05T12:50:09.365Z,99172.61
2018-10-05T12:52:43.869Z,99170.16
2018-10-05T12:55:18.495Z,99158.12
2018-10-05T12:57:53.104Z,99161.91
2018-10-05T13:00:27.657Z,99158.21
2018-10-05T13:03:02.383Z,99152.52
2018-10-05T13:05:37.288Z,99150.55
2018-10-05T13:08:11.915Z,99148.43
2018-10-05T13:10:46.744Z,99150.32
2018-10-05T13:13:21.428Z,99151.70
2018-10-05T13:15:56.254Z,99145.70
2018-10-05T13:18:30.825Z,99146.02
2018-10-05T13:21:05.608Z,99139.37
2018-10-05T13:23:40.202Z,99140.58
2018-10-05T13:26:14.561Z,99137.42
2018-10-05T13:28:49.102Z,99131.12
2018-10-05T13:31:23.657Z,99121.72
2018-10-05T13:33:58.238Z,99116.30
2018-10-05T13:36:32.781Z,99109.38
2018-10-05T13:39:09.607Z,99109.77
2018-10-05T13:41:44.623Z,99106.35
2018-10-05T13:44:19.377Z,99100.11
2018-10-05T13:46:54.421Z,99097.34
2018-10-05T13:49:29.056Z,99097.75
2018-10-05T13:52:03.693Z,99089.92
2018-10-05T13:54:38.340Z,99084.56
2018-10-05T13:57:13.172Z,99087.35
2018-10-05T13:59:47.859Z,99085.41
2018-10-05T14:02:22.410Z,99079.59
2018-10-05T14:04:56.982Z,99071.15
2018-10-05T14:07:31.596Z,99073.27
2018-10-05T14:10:06.397Z,99069.83
2018-10-05T14:12:41.457Z,99067.45
2018-10-05T14:15:16.073Z,99067.77
2018-10-05T14:17:50.780Z,99061.05
2018-10-05T14:20:25.795Z,99064.77
2018-10-05T14:23:00.357Z,99059.46
2018-10-05T14:25:35.357Z,99056.33
2018-10-05T14:28:09.747Z,99052.92
2018-10-05T14:30:44.774Z,99054.17
2018-10-05T14:33:19.401Z,99041.72
2018-10-05T14:35:54.416Z,99044.73
2018-10-05T14:38:29.273Z,99035.39
2018-10-05T14:41:03.772Z,99038.41
2018-10-05T14:43:38.276Z,99027.98
2018-10-05T14:46:12.917Z,99035.00
2018-10-05T14:48:47.661Z,99023.77
2018-10-05T14:51:22.215Z,99019.68
2018-10-05T14:53:56.829Z,99019.57
2018-10-05T14:56:31.496Z,99014.00
2018-10-05T14:59:05.948Z,98999.22
2018-10-05T15:01:40.410Z,98999.99
2018-10-05T15:04:15.024Z,98994.55
2018-10-05T15:06:49.736Z,98995.05
2018-10-05T15:09:24.402Z,98982.17
2018-10-05T15:11:58.829Z,98988.31
2018-10-05T15:14:33.467Z,98985.59
2018-10-05T15:17:08.328Z,98990.47
2018-10-05T15:19:43.233Z,98982.53
2018-10-05T15:22:18.072Z,98983.76
2018-10-05T15:24:52.644Z,98975.00
2018-10-05T15:27:27.361Z,98973.28
2018-10-05T15:30:03.004Z,98972.59
2018-10-05T15:32:37.581Z,98968.12
2018-10-05T15:35:12.221Z,98964.08
2018-10-05T15:37:46.845Z,98962.14
2018-10-05T15:40:21.509Z,98965.84
2018-10-05T15:42:56.157Z,98961.88
2018-10-05T15:45:30.653Z,98964.28
2018-10-05T15:48:05.385Z,98961.11
2018-10-05T15:50:40.069Z,98952.55
2018-10-05T15:53:14.568Z,98959.44
2018-10-05T15:55:49.164Z,98955.17
2018-10-05T15:58:23.794Z,98952.53
2018-10-05T16:00:58.484Z,98955.17
2018-10-05T16:03:33.089Z,98952.73
2018-10-05T16:06:07.626Z,98968.13
2018-10-05T16:08:42.224Z,98964.78
2018-10-05T16:11:17.128Z,98958.23
2018-10-05T16:13:51.740Z,98963.38
2018-10-05T16:16:26.392Z,98957.98
2018-10-05T16:19:00.943Z,98967.24
2018-10-05T16:21:36.361Z,98964.76
2018-10-05T16:24:19.750Z,98961.13
2018-10-05T16:26:54.304Z,98968.48
2018-10-05T16:29:28.900Z,98962.27
2018-10-05T16:32:03.868Z,98965.33
2018-10-05T16:34:38.466Z,98966.13
2018-10-05T16:37:13.122Z,98964.83
2018-10-05T16:39:47.548Z,98965.42
2018-10-05T16:42:22.081Z,98963.45
2018-10-05T16:44:56.722Z,98965.42
2018-10-05T16:47:31.468Z,98954.84
2018-10-05T16:50:06.228Z,98949.23
2018-10-05T16:52:40.872Z,98949.23
2018-10-05T16:55:15.517Z,98947.63
2018-10-05T16:57:50.096Z,98955.64
2018-10-05T17:00:24.696Z,98948.36
2018-10-05T17:02:59.170Z,98946.13
2018-10-05T17:05:33.803Z,98948.31
2018-10-05T17:08:08.450Z,98941.52
2018-10-05T17:10:43.307Z,98944.34
2018-10-05T17:13:18.400Z,98945.35
2018-10-05T17:15:52.882Z,98949.63
2018-10-05T17:18:27.924Z,98942.86
2018-10-05T17:21:02.348Z,98938.79
2018-10-05T17:23:38.313Z,98937.69
2018-10-05T17:26:13.072Z,98942.03
2018-10-05T17:31:47.328Z,98937.70
2018-10-05T17:34:22.016Z,98939.21
2018-10-05T17:36:56.681Z,98939.73
2018-10-05T17:39:31.325Z,98937.80
2018-10-05T17:42:05.928Z,98929.75
2018-10-05T17:44:40.561Z,98942.05
2018-10-05T17:47:14.977Z,98935.97
2018-10-05T17:49:49.705Z,98936.50
2018-10-05T17:52:24.526Z,98936.28
2018-10-05T17:54:59.102Z,98935.77
2018-10-05T17:57:33.690Z,98937.28
2018-10-05T18:00:15.251Z,98930.91
2018-10-05T18:02:50.217Z,98927.00
2018-10-05T18:05:25.238Z,98939.69
2018-10-05T18:08:00.549Z,98937.22
2018-10-05T18:10:35.748Z,98929.69
2018-10-05T18:13:10.475Z,98929.39
2018-10-05T18:15:45.065Z,98930.83
2018-10-05T18:18:19.953Z,98930.80
2018-10-05T18:20:54.962Z,98926.27
2018-10-05T18:23:29.655Z,98928.41
2018-10-05T18:26:04.640Z,98922.50
2018-10-05T18:28:39.113Z,98927.10
2018-10-05T18:31:14.101Z,98923.63
2018-10-05T18:33:48.588Z,98931.00
2018-10-05T18:36:23.769Z,98922.91
2018-10-05T18:38:58.335Z,98919.50
2018-10-05T18:41:32.890Z,98919.82
2018-10-05T18:44:07.551Z,98922.21
2018-10-05T18:46:42.009Z,98925.10
2018-10-05T18:49:16.556Z,98915.55
2018-10-05T18:51:51.137Z,98920.48
2018-10-05T18:54:25.673Z,98916.48
2018-10-05T18:57:13.664Z,98916.13
2018-10-05T18:59:48.132Z,98914.08
2018-10-05T19:02:23.030Z,98909.38
2018-10-05T19:04:57.699Z,98905.20
2018-10-05T19:07:32.418Z,98903.09
2018-10-05T19:10:07.142Z,98919.39
2018-10-05T19:12:41.700Z,98912.88
2018-10-05T19:15:16.141Z,98912.95
2018-10-05T19:17:50.869Z,98912.27
2018-10-05T19:20:25.297Z,98914.31
2018-10-05T19:23:01.108Z,98913.59
2018-10-05T19:25:35.676Z,98914.50
2018-10-05T19:28:10.685Z,98912.94
2018-10-05T19:30:45.957Z,98918.91
2018-10-05T19:33:20.636Z,98907.97
2018-10-05T19:35:55.318Z,98907.83
2018-10-05T19:38:29.973Z,98911.45
2018-10-05T19:41:04.456Z,98902.00
2018-10-05T19:43:38.953Z,98898.80
2018-10-05T19:46:13.767Z,98906.34
2018-10-05T19:48:48.164Z,98899.11
2018-10-05T19:51:22.591Z,98901.20
2018-10-05T19:53:57.083Z,98897.79
2018-10-05T19:56:31.405Z,98897.13
2018-10-05T19:59:06.017Z,98892.88
2018-10-05T20:01:40.460Z,98892.95
2018-10-05T20:04:14.996Z,98892.34
2018-10-05T20:06:49.570Z,98887.80
2018-10-05T20:09:24.250Z,98883.64
2018-10-05T20:11:58.836Z,98883.47
2018-10-05T20:14:34.593Z,98872.67
2018-10-05T20:17:09.384Z,98880.11
2018-10-05T20:19:44.260Z,98882.49
2018-10-05T20:22:18.935Z,98872.41
2018-10-05T20:24:53.838Z,98870.32
2018-10-05T20:27:28.818Z,98872.80
2018-10-05T20:30:03.597Z,98867.14
2018-10-05T20:32:38.112Z,98867.18
2018-10-05T20:35:12.717Z,98870.94
2018-10-05T20:37:47.396Z,98864.70
2018-10-05T20:40:21.768Z,98867.36
2018-10-05T20:42:56.701Z,98869.98
2018-10-05T20:45:31.469Z,98871.30
2018-10-05T20:48:06.131Z,98868.83
2018-10-05T20:50:40.740Z,98864.36
2018-10-05T20:53:15.404Z,98866.47
2018-10-05T20:55:50.079Z,98868.36
2018-10-05T20:58:24.592Z,98853.85
2018-10-05T21:00:59.302Z,98860.67
2018-10-05T21:03:33.941Z,98857.97
2018-10-05T21:06:08.465Z,98861.28
2018-10-05T21:08:43.016Z,98857.27
2018-10-05T21:11:17.799Z,98856.51
2018-10-05T21:13:52.629Z,98855.54
2018-10-05T21:16:27.600Z,98857.40
2018-10-05T21:19:02.191Z,98859.95
2018-10-05T21:21:36.744Z,98859.95
2018-10-05T21:24:11.781Z,98861.45
2018-10-05T21:26:46.521Z,98857.11
2018-10-05T21:29:21.293Z,98859.63
2018-10-05T21:31:56.032Z,98858.39
2018-10-05T21:34:30.500Z,98850.27
2018-10-05T21:37:05.248Z,98855.08
2018-10-05T21:39:39.933Z,98858.14
2018-10-05T21:42:15.124Z,98859.77
2018-10-05T21:44:49.711Z,98854.95
2018-10-05T21:47:24.133Z,98854.95
2018-10-05T21:49:58.648Z,98864.41
2018-10-05T21:52:33.372Z,98859.19
2018-10-05T21:55:08.299Z,98857.50
2018-10-05T21:57:42.908Z,98858.52
2018-10-05T22:00:17.995Z,98860.14
2018-10-05T22:02:52.490Z,98859.79
2018-10-05T22:05:27.239Z,98852.23
2018-10-05T22:08:01.854Z,98851.22
2018-10-05T22:10:36.438Z,98849.27
2018-10-05T22:13:11.048Z,98845.61
2018-10-05T22:15:45.639Z,98847.58
2018-10-05T22:18:20.176Z,98844.84
2018-10-05T22:20:54.746Z,98847.58
2018-10-05T22:23:29.653Z,98843.05
2018-10-05T22:26:04.576Z,98844.45
2018-10-05T22:28:39.747Z,98844.11
2018-10-05T22:31:14.584Z,98836.69
2018-10-05T22:33:49.514Z,98836.91
2018-10-05T22:36:24.311Z,98840.39
2018-10-05T22:38:59.161Z,98834.31
2018-10-05T22:41:33.788Z,98832.16
2018-10-05T22:44:08.753Z,98832.75
2018-10-05T22:46:43.208Z,98832.19
2018-10-05T22:49:17.849Z,98822.73
2018-10-05T22:51:52.289Z,98825.58
2018-10-05T22:54:26.804Z,98822.53
2018-10-05T22:57:01.702Z,98825.05
2018-10-05T22:59:36.321Z,98817.28
2018-10-05T23:02:11.079Z,98813.88
2018-10-05T23:04:45.680Z,98817.53
2018-10-05T23:07:20.396Z,98811.48
2018-10-05T23:09:55.041Z,98815.59
2018-10-05T23:12:29.657Z,98818.76
2018-10-05T23:15:04.397Z,98819.70
2018-10-05T23:17:38.983Z,98817.48
2018-10-05T23:20:13.440Z,98818.28
2018-10-05T23:22:47.975Z,98812.80
2018-10-05T23:25:22.628Z,98816.23
2018-10-05T23:27:57.436Z,98813.03
2018-10-05T23:30:32.137Z,98809.84
2018-10-05T23:33:06.737Z,98807.68
2018-10-05T23:35:41.601Z,98806.42
2018-10-05T23:38:16.127Z,98801.30
2018-10-05T23:40:50.781Z,98799.13
2018-10-05T23:43:25.825Z,98802.55
2018-10-05T23:46:00.680Z,98797.76
2018-10-05T23:48:35.260Z,98796.63
2018-10-05T23:51:09.924Z,98789.33
2018-10-05T23:53:44.705Z,98786.72
2018-10-05T23:56:19.181Z,98790.02
2018-10-05T23:58:54.276Z,98783.30
